Time;durP1;ratioP1;P1;durP2;ratioP2;P2;SDS_P1;SDS_P2;PMS_P1;PMS_P2;Temp;Humidity;BMP_temperature;BMP_pressure;BME280_temperature;BME280_humidity;BME280_pressure;Samples;Min_cycle;Max_cycle;Signal;HPM_P1;HPM_P2
2023/05/09 00:00:51;;;;;;;1.88;0.60;;;;;;;5.89;48.42;102691.16;4986515;28;20054;-76
2023/05/09 00:03:18;;;;;;;1.02;0.60;;;;;;;5.86;48.35;102702.31;4988974;28;20058;-76
2023/05/09 00:05:46;;;;;;;2.42;0.40;;;;;;;5.82;48.57;102690.09;4990330;28;20057;-76
2023/05/09 00:08:13;;;;;;;1.80;0.70;;;;;;;5.79;48.64;102692.59;4987297;28;20082;-76
2023/05/09 00:10:39;;;;;;;4.53;0.50;;;;;;;5.77;48.77;102691.63;4987089;28;20741;-76
2023/05/09 00:13:07;;;;;;;5.95;0.70;;;;;;;5.73;49.07;102679.41;4990914;28;20922;-76
2023/05/09 00:15:34;;;;;;;3.15;0.73;;;;;;;5.72;49.14;102677.63;4993040;28;20046;-76
2023/05/09 00:18:02;;;;;;;3.20;0.47;;;;;;;5.70;49.32;102687.09;4990120;28;20049;-77
2023/05/09 00:20:29;;;;;;;3.40;0.40;;;;;;;5.67;49.30;102684.41;4991781;28;20057;-77
2023/05/09 00:22:57;;;;;;;4.15;0.75;;;;;;;5.61;49.25;102673.00;4988938;28;20052;-77
2023/05/09 00:25:23;;;;;;;3.42;0.75;;;;;;;5.60;49.36;102681.59;4988321;28;20057;-76
2023/05/09 00:27:50;;;;;;;3.83;0.63;;;;;;;5.57;49.72;102678.03;4993638;28;20062;-76
2023/05/09 00:30:17;;;;;;;4.53;0.88;;;;;;;5.53;49.35;102677.06;4990065;28;20388;-77
2023/05/09 00:32:44;;;;;;;1.52;0.50;;;;;;;5.51;49.52;102678.72;4989054;28;20050;-76
2023/05/09 00:35:12;;;;;;;1.48;1.00;;;;;;;5.46;49.90;102667.31;4992022;28;20061;-76
2023/05/09 00:37:39;;;;;;;1.15;0.40;;;;;;;5.46;49.93;102669.91;4991446;28;20051;-78
2023/05/09 00:40:08;;;;;;;2.60;0.50;;;;;;;5.43;49.96;102664.63;4992959;28;20050;-76
2023/05/09 00:42:35;;;;;;;3.35;0.52;;;;;;;5.41;49.62;102671.47;4990895;28;20125;-76
2023/05/09 00:45:02;;;;;;;1.42;0.60;;;;;;;5.39;50.02;102668.81;4988854;28;20822;-76
2023/05/09 00:47:29;;;;;;;0.82;0.52;;;;;;;5.37;50.29;102667.00;4992271;28;20057;-76
2023/05/09 00:49:58;;;;;;;1.13;0.60;;;;;;;5.35;50.36;102668.66;4992922;28;20057;-76
2023/05/09 00:52:26;;;;;;;1.20;0.70;;;;;;;5.32;50.71;102663.38;4987724;28;20046;-76
2023/05/09 00:54:54;;;;;;;3.58;0.60;;;;;;;5.29;50.55;102666.75;4990928;28;20047;-77
2023/05/09 00:57:21;;;;;;;2.65;0.50;;;;;;;5.26;50.61;102658.00;4988994;28;20053;-76
2023/05/09 00:59:48;;;;;;;3.60;0.60;;;;;;;5.26;51.03;102671.81;4989566;28;20050;-77
2023/05/09 01:02:17;;;;;;;0.93;0.60;;;;;;;5.23;50.51;102660.47;4991726;28;20050;-76
2023/05/09 01:04:44;;;;;;;1.52;0.60;;;;;;;5.18;50.55;102653.44;4990486;28;20054;-76
2023/05/09 01:07:19;;;;;;;3.40;0.70;;;;;;;5.20;50.91;102663.84;4992838;28;20515;-76
2023/05/09 01:09:56;;;;;;;3.72;0.60;;;;;;;5.18;50.85;102658.63;4990744;28;20084;-77
2023/05/09 01:12:31;;;;;;;4.15;0.52;;;;;;;5.18;51.28;102650.88;4988503;28;20042;-77
2023/05/09 01:15:03;;;;;;;3.83;0.80;;;;;;;5.17;51.13;102656.84;4989794;28;20046;-77
2023/05/09 01:17:37;;;;;;;1.88;0.80;;;;;;;5.17;51.10;102651.66;4991338;28;20053;-76
2023/05/09 01:20:13;;;;;;;3.80;0.63;;;;;;;5.14;51.04;102646.38;4990912;28;20057;-76
2023/05/09 01:22:45;;;;;;;2.03;0.65;;;;;;;5.13;51.48;102647.22;4989549;28;21647;-76
2023/05/09 01:25:28;;;;;;;3.33;0.60;;;;;;;5.11;51.54;102642.81;4991404;28;20124;-76
2023/05/09 01:28:01;;;;;;;1.20;0.70;;;;;;;5.10;51.50;102649.72;4989161;28;20058;-76
2023/05/09 01:30:31;;;;;;;1.90;0.77;;;;;;;5.06;51.96;102647.84;4989224;28;20057;-76
2023/05/09 01:33:01;;;;;;;5.63;0.75;;;;;;;5.05;51.58;102640.91;4990402;28;20053;-76
2023/05/09 01:35:31;;;;;;;4.45;0.60;;;;;;;5.04;51.55;102639.16;4991588;28;20042;-77
2023/05/09 01:37:59;;;;;;;1.52;0.60;;;;;;;5.01;52.03;102633.88;4991333;28;20061;-77
2023/05/09 01:40:31;;;;;;;2.53;0.57;;;;;;;5.01;52.06;102636.47;4991829;28;20049;-77
2023/05/09 01:43:02;;;;;;;0.77;0.60;;;;;;;4.98;51.70;102628.59;4990582;28;20050;-77
2023/05/09 01:45:31;;;;;;;2.25;0.70;;;;;;;4.99;52.41;102632.94;4989316;28;20100;-77
2023/05/09 01:47:59;;;;;;;1.05;0.50;;;;;;;4.99;52.17;102630.34;4989027;28;20643;-77
2023/05/09 01:50:27;;;;;;;1.15;0.60;;;;;;;4.99;52.34;102629.47;4985796;28;20495;-77
2023/05/09 01:52:56;;;;;;;5.30;1.08;;;;;;;4.99;52.57;102630.34;4989730;28;20054;-76
2023/05/09 01:55:26;;;;;;;1.02;0.60;;;;;;;4.96;52.80;102628.53;4988996;28;20046;-76
2023/05/09 01:57:55;;;;;;;2.65;0.98;;;;;;;4.97;52.69;102627.69;4991268;28;20422;-77
2023/05/09 02:00:24;;;;;;;3.80;1.10;;;;;;;4.96;52.60;102625.94;4988610;28;20057;-76
2023/05/09 02:02:53;;;;;;;5.97;0.73;;;;;;;4.95;53.11;102619.00;4990814;28;20129;-76
2023/05/09 02:05:21;;;;;;;1.63;0.60;;;;;;;4.96;52.77;102619.88;4989167;28;20054;-76
2023/05/09 02:07:49;;;;;;;5.00;0.70;;;;;;;4.96;53.07;102630.22;4989591;28;20056;-78
2023/05/09 02:10:16;;;;;;;1.95;0.60;;;;;;;4.92;53.52;102621.50;4990542;28;20052;-76
2023/05/09 02:12:43;;;;;;;5.03;1.33;;;;;;;4.93;53.45;102624.94;4988172;28;20050;-77
2023/05/09 02:15:11;;;;;;;5.47;0.93;;;;;;;4.92;53.09;102623.16;4989243;28;20046;-77
2023/05/09 02:17:38;;;;;;;4.53;0.80;;;;;;;4.92;53.50;102620.56;4988438;28;20053;-76
2023/05/09 02:20:10;;;;;;;5.80;0.70;;;;;;;4.93;53.63;102627.53;4989360;28;20050;-77
2023/05/09 02:22:37;;;;;;;1.90;0.80;;;;;;;4.91;53.75;102621.41;4989337;28;20121;-77
2023/05/09 02:25:06;;;;;;;3.17;0.60;;;;;;;4.89;53.53;102613.59;4989784;28;20051;-77
2023/05/09 02:27:34;;;;;;;2.90;1.25;;;;;;;4.89;53.67;102615.28;4985130;28;20112;-76
2023/05/09 02:30:06;;;;;;;2.88;0.90;;;;;;;4.88;53.67;102616.13;4990332;28;20054;-74
2023/05/09 02:32:35;;;;;;;5.53;0.80;;;;;;;4.86;54.18;102613.47;4987588;28;20065;-73
2023/05/09 02:35:04;;;;;;;2.10;0.80;;;;;;;4.87;54.18;102616.97;4986806;28;20046;-73
2023/05/09 02:37:33;;;;;;;5.10;1.17;;;;;;;4.86;54.10;102604.84;4987807;28;20149;-73
2023/05/09 02:40:01;;;;;;;4.35;1.30;;;;;;;4.86;54.64;102602.25;4987216;28;20053;-73
2023/05/09 02:42:29;;;;;;;5.25;0.85;;;;;;;4.87;54.52;102610.09;4985702;28;20420;-73
2023/05/09 02:44:56;;;;;;;9.55;1.95;;;;;;;4.88;54.88;102605.78;4991522;28;20046;-73
2023/05/09 02:47:23;;;;;;;3.88;1.42;;;;;;;4.88;54.86;102605.78;4985833;28;20713;-73
2023/05/09 02:49:50;;;;;;;4.00;1.30;;;;;;;4.90;55.13;102606.72;4986621;28;20064;-73
2023/05/09 02:52:16;;;;;;;4.15;1.25;;;;;;;4.91;54.85;102603.28;4988802;28;20061;-73
2023/05/09 02:54:46;;;;;;;10.48;2.05;;;;;;;4.91;55.17;102603.28;4988217;28;20045;-73
2023/05/09 02:57:13;;;;;;;4.13;1.30;;;;;;;4.91;55.17;102605.88;4986483;28;20046;-72
2023/05/09 02:59:41;;;;;;;4.15;1.20;;;;;;;4.90;55.69;102599.81;4986555;28;20517;-65
2023/05/09 03:02:07;;;;;;;6.38;1.67;;;;;;;4.92;55.58;102597.28;4987970;28;20046;-65
2023/05/09 03:04:34;;;;;;;5.78;2.00;;;;;;;4.88;55.68;102591.13;4987925;28;20505;-65
2023/05/09 03:07:01;;;;;;;3.67;1.30;;;;;;;4.94;55.94;102601.69;4988569;28;20538;-65
2023/05/09 03:09:28;;;;;;;5.10;1.65;;;;;;;4.95;55.97;102600.88;4988112;28;20431;-66
2023/05/09 03:11:56;;;;;;;1.95;1.05;;;;;;;4.96;55.58;102601.75;4986332;28;20578;-65
2023/05/09 03:14:23;;;;;;;4.10;1.45;;;;;;;4.97;56.15;102606.09;4984764;28;20495;-65
2023/05/09 03:16:50;;;;;;;6.30;1.48;;;;;;;4.96;55.84;102604.34;4985316;28;20495;-65
2023/05/09 03:19:17;;;;;;;4.40;1.65;;;;;;;5.00;56.52;102602.72;4989845;28;20502;-65
2023/05/09 03:21:44;;;;;;;4.55;1.67;;;;;;;4.99;56.43;102591.50;4985152;28;20513;-65
2023/05/09 03:24:11;;;;;;;5.15;1.90;;;;;;;5.02;56.78;102598.47;4987345;28;20057;-65
2023/05/09 03:26:38;;;;;;;3.60;1.50;;;;;;;5.03;56.63;102595.06;4987945;28;20054;-65
2023/05/09 03:29:06;;;;;;;7.95;1.20;;;;;;;5.03;56.71;102593.34;4986505;28;20046;-65
2023/05/09 03:31:33;;;;;;;5.07;1.65;;;;;;;5.02;56.80;102593.31;4983362;28;20438;-65
2023/05/09 03:34:00;;;;;;;3.53;1.80;;;;;;;5.05;56.87;102589.09;4985520;28;20061;-65
2023/05/09 03:36:27;;;;;;;2.88;1.48;;;;;;;5.06;57.25;102580.47;4986516;28;20065;-65
2023/05/09 03:38:54;;;;;;;4.82;1.98;;;;;;;5.08;57.14;102588.31;4984290;28;21267;-65
2023/05/09 03:41:21;;;;;;;6.72;1.83;;;;;;;5.10;57.11;102584.09;4989195;28;20155;-65
2023/05/09 03:43:48;;;;;;;4.18;1.60;;;;;;;5.12;57.17;102580.72;4982727;28;20050;-65
2023/05/09 03:46:16;;;;;;;6.68;2.30;;;;;;;5.15;57.66;102577.31;4987523;28;20054;-65
2023/05/09 03:48:43;;;;;;;4.75;2.38;;;;;;;5.15;58.72;102575.63;4983811;28;20042;-65
2023/05/09 03:51:10;;;;;;;8.13;2.60;;;;;;;5.20;58.33;102578.34;4990718;28;20054;-65
2023/05/09 03:53:37;;;;;;;6.32;2.28;;;;;;;5.23;58.86;102581.03;4988131;28;20046;-65
2023/05/09 03:56:04;;;;;;;4.82;2.28;;;;;;;5.26;59.22;102575.09;4989914;28;20054;-65
2023/05/09 03:58:31;;;;;;;4.55;1.83;;;;;;;5.31;59.05;102581.31;4990466;28;20065;-65
2023/05/09 04:00:58;;;;;;;6.10;2.15;;;;;;;5.34;59.31;102566.72;4990039;28;20050;-65
2023/05/09 04:03:26;;;;;;;7.80;2.85;;;;;;;5.39;59.84;102575.53;4989039;28;20599;-65
2023/05/09 04:05:53;;;;;;;3.60;1.83;;;;;;;5.46;59.84;102574.00;4991682;28;20054;-66
2023/05/09 04:08:20;;;;;;;5.53;2.22;;;;;;;5.53;60.35;102575.09;4985914;28;20046;-66
2023/05/09 04:10:47;;;;;;;4.75;1.98;;;;;;;5.59;60.32;102568.38;4991199;28;20495;-65
2023/05/09 04:13:15;;;;;;;3.70;1.85;;;;;;;5.67;60.52;102581.59;4989408;28;20050;-65
2023/05/09 04:15:42;;;;;;;12.50;3.33;;;;;;;5.71;60.50;102567.88;4991277;28;20503;-66
2023/05/09 04:18:09;;;;;;;7.25;2.45;;;;;;;5.84;60.66;102571.72;4990403;28;20050;-66
2023/05/09 04:20:37;;;;;;;4.38;2.13;;;;;;;5.94;60.92;102576.38;4989952;28;20057;-66
2023/05/09 04:23:04;;;;;;;3.20;2.08;;;;;;;6.06;60.79;102570.66;4990880;28;20042;-65
2023/05/09 04:25:34;;;;;;;5.18;2.25;;;;;;;6.17;60.80;102573.56;4989542;28;20057;-66
2023/05/09 04:28:01;;;;;;;6.80;2.20;;;;;;;6.27;61.18;102571.28;4987768;28;20057;-66
2023/05/09 04:30:28;;;;;;;10.07;2.95;;;;;;;6.43;61.27;102572.59;4989326;28;20161;-66
2023/05/09 04:32:55;;;;;;;4.70;2.45;;;;;;;6.58;61.15;102576.44;4990671;28;20092;-66
2023/05/09 04:35:22;;;;;;;9.27;2.30;;;;;;;6.72;61.38;102569.88;4988113;28;20046;-66
2023/05/09 04:37:51;;;;;;;4.53;1.77;;;;;;;6.87;60.98;102570.28;4990882;28;20054;-66
2023/05/09 04:40:19;;;;;;;5.00;1.85;;;;;;;7.03;61.21;102565.44;4989150;28;20050;-66
2023/05/09 04:42:46;;;;;;;4.28;1.83;;;;;;;7.20;60.84;102565.03;4987061;28;20054;-66
2023/05/09 04:45:13;;;;;;;2.40;1.30;;;;;;;7.38;60.60;102568.91;4991251;28;20893;-66
2023/05/09 04:47:39;;;;;;;5.35;1.50;;;;;;;7.53;60.46;102569.25;4990386;28;20049;-66
2023/05/09 04:50:08;;;;;;;5.68;1.70;;;;;;;7.70;60.23;102560.97;4990849;28;20057;-66
2023/05/09 04:52:34;;;;;;;4.90;3.08;;;;;;;7.88;59.98;102567.47;4990072;28;20084;-66
2023/05/09 04:55:03;;;;;;;4.72;1.88;;;;;;;8.06;59.97;102566.09;4990090;28;20042;-66
2023/05/09 04:57:30;;;;;;;3.33;1.08;;;;;;;8.23;59.40;102559.50;4989660;28;20050;-66
2023/05/09 04:59:57;;;;;;;8.05;1.00;;;;;;;8.43;59.34;102567.72;4989759;28;20057;-66
2023/05/09 05:02:24;;;;;;;6.97;1.38;;;;;;;8.61;59.01;102572.38;4988549;28;20046;-66
2023/05/09 05:04:51;;;;;;;6.40;1.25;;;;;;;8.78;58.88;102568.34;4988337;28;20443;-66
2023/05/09 05:07:17;;;;;;;3.58;1.40;;;;;;;8.95;58.61;102563.44;4990533;28;20050;-66
2023/05/09 05:09:44;;;;;;;3.92;1.63;;;;;;;9.13;57.85;102565.47;4989063;28;20050;-66
2023/05/09 05:12:12;;;;;;;4.13;1.45;;;;;;;9.27;57.79;102555.25;4987985;28;20057;-66
2023/05/09 05:14:39;;;;;;;4.25;1.38;;;;;;;9.47;57.08;102566.00;4992772;28;20085;-66
2023/05/09 05:17:07;;;;;;;7.45;1.20;;;;;;;9.63;56.90;102554.06;4988313;28;20047;-65
2023/05/09 05:19:34;;;;;;;6.05;1.10;;;;;;;9.80;56.63;102563.00;4989130;28;20110;-65
2023/05/09 05:22:01;;;;;;;2.65;1.38;;;;;;;9.94;56.28;102565.78;4990480;28;20055;-65
2023/05/09 05:24:28;;;;;;;2.65;1.08;;;;;;;10.06;55.74;102560.72;4982460;28;20050;-66
2023/05/09 05:26:54;;;;;;;6.43;1.05;;;;;;;10.21;55.24;102561.75;4988397;28;20399;-65
2023/05/09 05:29:23;;;;;;;4.35;0.90;;;;;;;10.32;54.98;102544.50;4987125;28;20046;-65
2023/05/09 05:31:50;;;;;;;3.22;1.00;;;;;;;10.45;54.99;102556.84;4987315;28;20250;-65
2023/05/09 05:34:17;;;;;;;16.50;2.55;;;;;;;10.55;54.29;102555.19;4987565;28;20043;-65
2023/05/09 05:36:43;;;;;;;4.25;1.23;;;;;;;10.70;54.14;102562.28;4989170;28;20050;-65
2023/05/09 05:39:10;;;;;;;2.85;1.02;;;;;;;10.80;53.60;102548.47;4987080;28;20054;-65
2023/05/09 05:41:37;;;;;;;4.97;1.55;;;;;;;10.90;53.38;102547.69;4988517;28;20050;-65
2023/05/09 05:44:05;;;;;;;5.10;1.15;;;;;;;11.00;53.23;102548.63;4988246;28;20100;-65
2023/05/09 05:46:33;;;;;;;11.85;1.92;;;;;;;11.09;53.09;102546.09;4986546;28;20057;-65
2023/05/09 05:49:00;;;;;;;3.85;1.10;;;;;;;11.16;53.11;102540.06;4987706;28;20129;-65
2023/05/09 05:51:27;;;;;;;5.65;0.95;;;;;;;11.26;52.86;102547.09;4987507;28;20050;-65
2023/05/09 05:53:54;;;;;;;6.15;1.15;;;;;;;11.34;52.69;102536.69;4988971;28;20058;-64
2023/05/09 05:56:21;;;;;;;6.00;1.10;;;;;;;11.40;52.33;102534.09;4988703;28;20545;-65
2023/05/09 05:58:48;;;;;;;3.53;0.80;;;;;;;11.49;52.09;102535.88;4987969;28;20057;-65
2023/05/09 06:01:15;;;;;;;7.53;1.25;;;;;;;11.55;52.31;102527.19;4987739;28;20078;-65
2023/05/09 06:03:43;;;;;;;3.95;0.93;;;;;;;11.62;51.62;102531.63;4987710;28;20050;-65
2023/05/09 06:06:10;;;;;;;6.60;0.95;;;;;;;11.67;51.73;102532.53;4987511;28;20072;-65
2023/05/09 06:08:37;;;;;;;5.53;1.00;;;;;;;11.73;51.33;102522.06;4986756;28;20104;-65
2023/05/09 06:11:04;;;;;;;3.78;0.90;;;;;;;11.78;50.90;102520.38;4987131;28;20057;-65
2023/05/09 06:13:31;;;;;;;4.53;1.10;;;;;;;11.83;50.75;102522.97;4986635;28;20113;-67
2023/05/09 06:15:58;;;;;;;1.80;1.00;;;;;;;11.87;50.56;102520.44;4982576;28;20046;-66
2023/05/09 06:18:25;;;;;;;3.45;1.08;;;;;;;11.92;50.51;102513.47;4988615;28;20053;-66
2023/05/09 06:20:53;;;;;;;3.20;0.80;;;;;;;11.99;50.11;102510.88;4987520;28;20499;-66
2023/05/09 06:23:21;;;;;;;4.93;1.00;;;;;;;12.04;50.13;102511.72;4989015;28;20133;-65
2023/05/09 06:25:48;;;;;;;6.22;0.80;;;;;;;12.08;50.15;102508.28;4987466;28;20050;-66
2023/05/09 06:28:15;;;;;;;7.45;1.05;;;;;;;12.13;49.82;102509.16;4987851;28;20060;-66
2023/05/09 06:30:42;;;;;;;3.85;0.80;;;;;;;12.17;50.36;102510.91;4985337;28;20054;-66
2023/05/09 06:33:09;;;;;;;6.43;0.73;;;;;;;12.22;50.04;102511.81;4987989;28;20046;-67
2023/05/09 06:35:36;;;;;;;5.55;1.10;;;;;;;12.26;49.80;102513.53;4988602;28;20059;-66
2023/05/09 06:38:04;;;;;;;2.33;0.93;;;;;;;12.32;49.31;102515.31;4987893;28;20046;-66
2023/05/09 06:40:31;;;;;;;3.40;0.82;;;;;;;12.36;49.59;102509.22;4988740;28;20077;-66
2023/05/09 06:42:58;;;;;;;2.67;1.02;;;;;;;12.40;49.45;102510.97;4987190;28;20053;-66
2023/05/09 06:45:25;;;;;;;1.77;0.75;;;;;;;12.45;49.16;102503.97;4987619;28;20056;-66
2023/05/09 06:47:51;;;;;;;8.13;0.80;;;;;;;12.48;48.87;102505.75;4986104;28;20053;-66
2023/05/09 06:50:18;;;;;;;10.10;1.15;;;;;;;12.55;48.56;102510.09;4989459;28;20503;-66
2023/05/09 06:52:45;;;;;;;10.38;1.23;;;;;;;12.58;48.79;102504.88;4987165;28;20050;-66
2023/05/09 06:55:14;;;;;;;3.20;1.00;;;;;;;12.68;48.36;102508.38;4963533;28;20055;-66
2023/05/09 06:57:41;;;;;;;1.98;0.82;;;;;;;12.74;48.60;102514.50;4985635;28;20128;-66
2023/05/09 07:00:09;;;;;;;6.25;0.80;;;;;;;12.82;48.23;102504.00;4984334;28;20388;-65
2023/05/09 07:02:40;;;;;;;1.55;0.77;;;;;;;12.93;47.81;102514.50;4982031;28;20518;-66
2023/05/09 07:05:08;;;;;;;8.32;0.88;;;;;;;13.03;47.89;102505.72;4983405;28;20046;-66
2023/05/09 07:07:34;;;;;;;7.50;0.90;;;;;;;13.11;47.74;102501.34;4987242;28;20418;-66
2023/05/09 07:10:03;;;;;;;110.40;8.35;;;;;;;13.20;47.57;102496.09;4987147;28;20133;-67
2023/05/09 07:12:32;;;;;;;2.47;1.08;;;;;;;13.31;47.29;102495.22;4989069;28;20054;-74
2023/05/09 07:14:59;;;;;;;16.23;0.88;;;;;;;13.41;47.20;102495.22;4988680;28;20057;-74
2023/05/09 07:17:26;;;;;;;3.10;0.50;;;;;;;13.56;47.04;102493.41;4987107;28;20046;-76
2023/05/09 07:19:53;;;;;;;2.65;0.75;;;;;;;13.70;46.95;102487.22;4985579;28;20061;-76
2023/05/09 07:22:19;;;;;;;2.30;0.82;;;;;;;13.82;46.41;102488.06;4986645;28;20054;-75
2023/05/09 07:24:46;;;;;;;4.30;0.70;;;;;;;13.92;46.14;102487.16;4989713;28;20517;-74
2023/05/09 07:27:13;;;;;;;5.05;0.98;;;;;;;14.04;45.61;102471.31;4994888;28;20050;-75
2023/05/09 07:29:42;;;;;;;4.60;0.65;;;;;;;14.22;45.70;102475.56;4990922;28;20042;-76
2023/05/09 07:32:09;;;;;;;4.32;0.80;;;;;;;14.44;44.93;102471.03;4991419;28;20050;-71
2023/05/09 07:34:36;;;;;;;5.13;0.70;;;;;;;14.58;44.19;102469.22;4990497;28;20054;-71
2023/05/09 07:37:03;;;;;;;8.10;1.42;;;;;;;14.72;44.00;102471.72;4988969;28;20138;-72
2023/05/09 07:39:30;;;;;;;1.00;0.60;;;;;;;14.85;43.35;102472.47;4991242;28;20503;-75
2023/05/09 07:41:56;;;;;;;2.97;0.65;;;;;;;14.95;43.19;102463.63;4992629;28;20054;-74
2023/05/09 07:44:23;;;;;;;1.75;0.60;;;;;;;15.09;43.08;102460.00;4990553;28;20410;-75
2023/05/09 07:46:54;;;;;;;8.65;0.60;;;;;;;15.22;42.56;102456.31;4991936;28;20051;-76
2023/05/09 07:49:21;;;;;;;2.17;0.70;;;;;;;15.35;42.41;102454.44;4990519;28;20050;-73
2023/05/09 07:51:48;;;;;;;0.80;0.60;;;;;;;15.46;42.08;102450.78;4991097;28;20054;-74
2023/05/09 07:54:14;;;;;;;2.53;0.65;;;;;;;15.61;41.68;102454.13;4992870;28;20400;-73
2023/05/09 07:56:41;;;;;;;3.47;0.60;;;;;;;15.74;41.30;102453.13;4990079;28;20050;-76
2023/05/09 07:59:08;;;;;;;0.70;0.50;;;;;;;15.88;41.07;102448.53;4991125;28;20056;-73
2023/05/09 08:01:35;;;;;;;6.95;0.60;;;;;;;15.99;40.77;102444.84;4990304;28;20051;-73
2023/05/09 08:04:05;;;;;;;1.65;0.50;;;;;;;16.13;39.80;102440.25;4991540;28;20051;-74
2023/05/09 08:06:32;;;;;;;1.52;0.50;;;;;;;16.26;39.92;102443.59;4988680;28;20046;-74
2023/05/09 08:08:59;;;;;;;6.40;0.60;;;;;;;16.38;39.73;102443.38;4990322;28;20046;-75
2023/05/09 08:11:26;;;;;;;10.75;0.60;;;;;;;16.47;39.41;102445.00;4988425;28;20057;-75
2023/05/09 08:13:53;;;;;;;11.82;1.00;;;;;;;16.59;38.86;102439.50;4989816;28;20163;-74
2023/05/09 08:16:20;;;;;;;6.03;0.60;;;;;;;16.68;38.27;102436.72;4991166;28;20043;-75
2023/05/09 08:18:47;;;;;;;2.42;0.47;;;;;;;16.77;37.93;102433.09;4990484;28;20046;-76
2023/05/09 08:21:15;;;;;;;2.88;0.77;;;;;;;16.83;37.49;102435.63;4990670;28;20056;-74
2023/05/09 08:23:42;;;;;;;30.10;3.30;;;;;;;16.86;37.63;102425.88;4990671;28;20050;-75
2023/05/09 08:26:09;;;;;;;23.00;1.40;;;;;;;16.97;37.81;102432.72;4989339;28;20053;-74
2023/05/09 08:28:35;;;;;;;1.00;0.43;;;;;;;17.05;37.10;102423.75;4988582;28;20050;-75
2023/05/09 08:31:02;;;;;;;11.55;0.80;;;;;;;17.04;37.93;102397.38;4989841;28;20058;-74
2023/05/09 08:33:29;;;;;;;12.50;0.60;;;;;;;17.16;37.38;102413.00;4984460;28;20047;-76
2023/05/09 08:35:56;;;;;;;3.50;0.52;;;;;;;17.23;36.80;102406.69;4987472;28;20054;-74
2023/05/09 08:38:24;;;;;;;3.42;0.70;;;;;;;17.28;36.22;102410.09;4991285;28;20051;-76
2023/05/09 08:40:51;;;;;;;8.55;0.55;;;;;;;17.28;36.25;102404.81;4992875;28;20097;-75
2023/05/09 08:43:21;;;;;;;22.23;0.73;;;;;;;17.26;35.91;102392.53;4994712;28;20058;-72
2023/05/09 08:45:51;;;;;;;9.05;0.65;;;;;;;17.39;35.16;102401.97;4988354;28;20065;-73
2023/05/09 08:48:19;;;;;;;4.78;0.60;;;;;;;17.43;35.91;102400.97;4988911;28;20054;-73
2023/05/09 08:50:46;;;;;;;8.85;0.77;;;;;;;17.47;35.90;102397.34;4989090;28;20054;-73
2023/05/09 08:53:13;;;;;;;12.50;0.60;;;;;;;17.52;35.32;102403.41;4989175;28;20046;-74
2023/05/09 08:55:42;;;;;;;3.38;0.50;;;;;;;17.58;35.72;102401.56;4987915;28;20518;-75
2023/05/09 08:58:10;;;;;;;0.73;0.40;;;;;;;17.62;35.71;102406.75;4991046;28;20046;-75
2023/05/09 09:00:37;;;;;;;4.75;0.55;;;;;;;17.69;34.77;102402.19;4988920;28;20042;-74
2023/05/09 09:03:07;;;;;;;15.07;1.90;;;;;;;17.75;34.73;102400.25;4987835;28;20047;-74
2023/05/09 09:05:37;;;;;;;2.45;0.40;;;;;;;17.79;33.96;102403.75;4988172;28;20100;-74
2023/05/09 09:08:07;;;;;;;1.45;0.98;;;;;;;17.83;33.74;102384.28;4988474;28;20109;-75
2023/05/09 09:10:34;;;;;;;0.82;0.60;;;;;;;17.88;33.69;102394.75;4991494;28;20556;-76
2023/05/09 09:13:05;;;;;;;2.85;0.45;;;;;;;17.92;33.39;102393.75;4990340;28;20060;-74
2023/05/09 09:15:35;;;;;;;3.42;0.60;;;;;;;17.91;33.23;102376.19;4987591;28;20077;-74
2023/05/09 09:18:08;;;;;;;7.43;0.40;;;;;;;17.98;32.76;102388.31;4987021;28;20038;-73
2023/05/09 09:20:37;;;;;;;3.45;0.60;;;;;;;18.01;32.43;102385.59;4988286;28;20105;-73
2023/05/09 09:23:06;;;;;;;4.95;0.45;;;;;;;18.04;32.57;102384.66;4989476;28;20431;-74
2023/05/09 09:25:33;;;;;;;2.05;0.40;;;;;;;18.06;32.35;102381.09;4988310;28;20591;-74
2023/05/09 09:28:00;;;;;;;2.33;0.47;;;;;;;18.11;31.96;102384.50;4988346;28;20057;-75
2023/05/09 09:30:28;;;;;;;9.32;0.50;;;;;;;18.13;32.23;102369.47;4990095;28;20462;-72
2023/05/09 09:32:55;;;;;;;1.98;0.40;;;;;;;18.15;31.53;102369.41;4989253;28;20050;-75
2023/05/09 09:35:23;;;;;;;4.85;0.40;;;;;;;18.21;31.61;102382.47;4988841;28;20050;-74
2023/05/09 09:37:57;;;;;;;3.28;0.45;;;;;;;18.24;31.90;102374.47;4987232;28;20423;-73
2023/05/09 09:40:25;;;;;;;0.90;0.50;;;;;;;18.26;32.53;102366.50;4992195;28;20058;-74
2023/05/09 09:42:52;;;;;;;1.75;0.50;;;;;;;18.26;32.19;102353.28;4990703;28;20426;-73
2023/05/09 09:45:20;;;;;;;1.45;0.50;;;;;;;18.31;32.40;102359.31;4988099;28;20157;-73
2023/05/09 09:47:49;;;;;;;0.95;0.60;;;;;;;18.33;32.34;102365.47;4987818;28;20490;-74
2023/05/09 09:50:21;;;;;;;3.65;0.90;;;;;;;18.35;32.46;102359.19;4986053;28;20499;-74
2023/05/09 09:52:50;;;;;;;1.38;0.47;;;;;;;18.37;32.92;102364.44;4986575;28;20456;-78
2023/05/09 09:55:18;;;;;;;3.80;0.43;;;;;;;18.42;32.78;102362.56;4989291;28;20155;-73
2023/05/09 09:57:45;;;;;;;5.00;0.52;;;;;;;18.39;33.02;102352.06;4984841;28;20050;-73
2023/05/09 10:00:13;;;;;;;0.80;0.50;;;;;;;18.43;33.03;102359.00;4987700;28;20050;-70
2023/05/09 10:02:52;;;;;;;1.50;0.40;;;;;;;18.49;33.43;102364.13;4988854;28;20046;-70
2023/05/09 10:05:23;;;;;;;3.05;0.65;;;;;;;18.51;33.42;102364.97;4986538;28;20078;-69
2023/05/09 10:07:52;;;;;;;1.77;0.57;;;;;;;18.53;33.46;102364.94;4986005;28;20042;-70
2023/05/09 10:10:19;;;;;;;39.40;1.85;;;;;;;18.53;33.08;102357.88;4989292;28;20109;-70
2023/05/09 10:12:47;;;;;;;5.22;0.50;;;;;;;18.54;33.22;102359.59;4985766;28;20584;-70
2023/05/09 10:15:19;;;;;;;3.53;0.70;;;;;;;18.55;33.14;102350.72;4987951;28;20046;-71
2023/05/09 10:17:45;;;;;;;1.75;0.60;;;;;;;18.56;33.39;102355.13;4983140;28;20050;-70
2023/05/09 10:20:14;;;;;;;6.53;0.70;;;;;;;18.57;33.30;102343.63;4988735;28;20065;-70
2023/05/09 10:22:41;;;;;;;10.20;0.60;;;;;;;18.60;33.59;102346.19;4987823;28;20161;-70
2023/05/09 10:25:14;;;;;;;10.45;0.52;;;;;;;18.60;33.57;102335.59;4986348;28;20050;-70
2023/05/09 10:27:45;;;;;;;4.25;0.60;;;;;;;18.59;33.90;102330.38;4986746;28;21030;-70
2023/05/09 10:30:17;;;;;;;2.70;0.50;;;;;;;18.62;33.80;102348.81;4985172;28;20737;-70
2023/05/09 10:32:49;;;;;;;6.28;0.60;;;;;;;18.64;33.93;102337.28;4986250;28;20062;-69
2023/05/09 10:35:19;;;;;;;2.92;0.80;;;;;;;18.63;33.42;102335.50;4986321;28;20431;-70
2023/05/09 10:37:49;;;;;;;3.38;0.68;;;;;;;18.59;33.30;102335.66;4987705;28;20051;-70
2023/05/09 10:40:16;;;;;;;2.20;0.60;;;;;;;18.59;33.58;102338.31;4988276;28;20080;-70
2023/05/09 10:42:43;;;;;;;2.42;0.70;;;;;;;18.56;33.21;102336.59;4986699;28;20514;-70
2023/05/09 10:45:11;;;;;;;4.85;0.70;;;;;;;18.58;33.22;102341.84;4987094;28;20073;-70
2023/05/09 10:47:39;;;;;;;0.85;0.50;;;;;;;18.57;33.32;102337.47;4985431;28;20056;-70
2023/05/09 10:50:08;;;;;;;11.63;0.77;;;;;;;18.59;33.54;102344.47;4986308;28;20049;-73
2023/05/09 10:53:07;;;;;;;23.60;0.90;;;;;;;18.60;33.76;102343.53;4988287;28;20054;-74
2023/05/09 10:55:37;;;;;;;20.73;2.38;;;;;;;18.60;33.33;102334.75;4987732;28;20054;-74
2023/05/09 10:58:19;;;;;;;4.22;0.70;;;;;;;18.60;33.11;102335.59;4984654;28;20046;-73
2023/05/09 11:00:47;;;;;;;6.82;0.50;;;;;;;18.58;33.29;102326.81;4988417;28;20804;-74
2023/05/09 11:03:14;;;;;;;2.88;0.60;;;;;;;18.59;33.12;102330.38;4988102;28;20057;-74
2023/05/09 11:05:41;;;;;;;6.05;0.77;;;;;;;18.57;32.88;102319.81;4986209;28;20046;-73
2023/05/09 11:08:30;;;;;;;0.95;0.55;;;;;;;18.57;32.61;102335.69;4979062;28;20138;-71
2023/05/09 11:10:59;;;;;;;1.83;0.60;;;;;;;18.54;32.22;102330.47;4987202;28;20132;-71
2023/05/09 11:13:31;;;;;;;3.80;0.50;;;;;;;18.43;32.97;102320.16;4982140;28;20082;-72
2023/05/09 11:16:05;;;;;;;9.23;0.52;;;;;;;18.50;32.26;102330.59;4984181;28;20058;-71
2023/05/09 11:18:32;;;;;;;0.93;0.50;;;;;;;18.43;32.41;102319.31;4985092;28;20125;-72
2023/05/09 11:21:06;;;;;;;1.00;0.47;;;;;;;18.46;32.62;102327.16;4985856;28;20050;-72
2023/05/09 11:23:35;;;;;;;3.03;0.50;;;;;;;18.33;32.28;102309.91;4985009;28;20046;-71
2023/05/09 11:26:07;;;;;;;3.10;0.55;;;;;;;18.43;32.30;102337.84;4981865;28;21176;-71
2023/05/09 11:28:36;;;;;;;3.28;0.75;;;;;;;18.38;31.97;102322.06;4987802;28;20053;-72
2023/05/09 11:31:10;;;;;;;2.83;0.60;;;;;;;18.38;31.95;102326.50;4983161;28;20126;-72
2023/05/09 11:33:38;;;;;;;4.18;0.50;;;;;;;18.35;31.57;102331.88;4990632;28;20056;-72